sensor_id;sensor_type;location;lat;lon;timestamp;P1;durP1;ratioP1;P2;durP2;ratioP2
70757;SDS011;59316;52.964;7.102;2022-12-18T00:03:24;127.47;;;29.48;;
70757;SDS011;59316;52.964;7.102;2022-12-18T00:08:27;138.10;;;28.75;;
70757;SDS011;59316;52.964;7.102;2022-12-18T00:13:28;143.25;;;30.88;;
70757;SDS011;59316;52.964;7.102;2022-12-18T00:18:30;135.35;;;32.33;;
70757;SDS011;59316;52.964;7.102;2022-12-18T00:23:34;145.32;;;32.88;;
70757;SDS011;59316;52.964;7.102;2022-12-18T00:28:38;128.20;;;29.83;;
70757;SDS011;59316;52.964;7.102;2022-12-18T00:33:40;145.30;;;31.70;;
70757;SDS011;59316;52.964;7.102;2022-12-18T00:38:44;124.38;;;27.42;;
70757;SDS011;59316;52.964;7.102;2022-12-18T00:43:46;115.13;;;28.10;;
70757;SDS011;59316;52.964;7.102;2022-12-18T00:48:48;132.73;;;31.25;;
70757;SDS011;59316;52.964;7.102;2022-12-18T00:53:50;119.43;;;28.40;;
70757;SDS011;59316;52.964;7.102;2022-12-18T00:58:52;124.13;;;29.33;;
70757;SDS011;59316;52.964;7.102;2022-12-18T01:03:54;122.63;;;29.52;;
70757;SDS011;59316;52.964;7.102;2022-12-18T01:08:56;110.57;;;28.95;;
70757;SDS011;59316;52.964;7.102;2022-12-18T01:13:58;107.30;;;29.33;;
70757;SDS011;59316;52.964;7.102;2022-12-18T01:19:00;130.25;;;30.77;;
70757;SDS011;59316;52.964;7.102;2022-12-18T01:24:02;141.95;;;33.67;;
70757;SDS011;59316;52.964;7.102;2022-12-18T01:29:04;139.53;;;33.40;;
70757;SDS011;59316;52.964;7.102;2022-12-18T01:34:06;132.63;;;29.77;;
70757;SDS011;59316;52.964;7.102;2022-12-18T01:39:12;112.60;;;28.48;;
70757;SDS011;59316;52.964;7.102;2022-12-18T01:49:36;138.95;;;31.98;;
70757;SDS011;59316;52.964;7.102;2022-12-18T01:54:38;141.68;;;33.47;;
70757;SDS011;59316;52.964;7.102;2022-12-18T01:59:40;124.93;;;30.37;;
70757;SDS011;59316;52.964;7.102;2022-12-18T02:04:44;105.78;;;28.92;;
70757;SDS011;59316;52.964;7.102;2022-12-18T02:09:58;108.40;;;27.98;;
70757;SDS011;59316;52.964;7.102;2022-12-18T02:30:27;73.63;;;22.60;;
70757;SDS011;59316;52.964;7.102;2022-12-18T02:35:31;80.75;;;22.85;;
70757;SDS011;59316;52.964;7.102;2022-12-18T02:40:35;79.78;;;24.15;;
70757;SDS011;59316;52.964;7.102;2022-12-18T02:50:59;85.78;;;22.95;;
70757;SDS011;59316;52.964;7.102;2022-12-18T02:56:11;70.43;;;21.63;;
70757;SDS011;59316;52.964;7.102;2022-12-18T03:01:30;74.80;;;22.52;;
70757;SDS011;59316;52.964;7.102;2022-12-18T03:06:40;75.65;;;21.50;;
70757;SDS011;59316;52.964;7.102;2022-12-18T03:11:44;78.13;;;21.40;;
70757;SDS011;59316;52.964;7.102;2022-12-18T03:16:49;75.47;;;20.98;;
70757;SDS011;59316;52.964;7.102;2022-12-18T03:21:53;68.10;;;20.73;;
70757;SDS011;59316;52.964;7.102;2022-12-18T03:26:58;80.97;;;23.15;;
70757;SDS011;59316;52.964;7.102;2022-12-18T03:32:04;67.95;;;22.88;;
70757;SDS011;59316;52.964;7.102;2022-12-18T03:37:07;68.22;;;20.77;;
70757;SDS011;59316;52.964;7.102;2022-12-18T03:42:21;64.82;;;19.90;;
70757;SDS011;59316;52.964;7.102;2022-12-18T03:47:33;64.13;;;18.70;;
70757;SDS011;59316;52.964;7.102;2022-12-18T03:53:04;63.28;;;20.13;;
70757;SDS011;59316;52.964;7.102;2022-12-18T03:58:03;51.87;;;17.37;;
70757;SDS011;59316;52.964;7.102;2022-12-18T04:03:16;65.93;;;18.90;;
70757;SDS011;59316;52.964;7.102;2022-12-18T04:08:26;53.65;;;19.50;;
70757;SDS011;59316;52.964;7.102;2022-12-18T04:13:37;62.78;;;19.58;;
70757;SDS011;59316;52.964;7.102;2022-12-18T04:18:45;47.88;;;17.92;;
70757;SDS011;59316;52.964;7.102;2022-12-18T04:23:49;56.90;;;18.58;;
70757;SDS011;59316;52.964;7.102;2022-12-18T04:28:54;57.70;;;18.63;;
70757;SDS011;59316;52.964;7.102;2022-12-18T04:33:56;45.13;;;16.10;;
70757;SDS011;59316;52.964;7.102;2022-12-18T04:38:59;48.67;;;18.17;;
70757;SDS011;59316;52.964;7.102;2022-12-18T04:44:01;65.22;;;19.35;;
70757;SDS011;59316;52.964;7.102;2022-12-18T04:49:03;49.43;;;19.20;;
70757;SDS011;59316;52.964;7.102;2022-12-18T04:54:05;61.50;;;19.50;;
70757;SDS011;59316;52.964;7.102;2022-12-18T04:59:06;50.63;;;18.60;;
70757;SDS011;59316;52.964;7.102;2022-12-18T05:04:08;41.93;;;16.67;;
70757;SDS011;59316;52.964;7.102;2022-12-18T05:09:11;41.95;;;16.85;;
70757;SDS011;59316;52.964;7.102;2022-12-18T05:14:13;48.20;;;17.25;;
70757;SDS011;59316;52.964;7.102;2022-12-18T05:19:15;52.25;;;18.67;;
70757;SDS011;59316;52.964;7.102;2022-12-18T05:24:18;56.42;;;18.73;;
70757;SDS011;59316;52.964;7.102;2022-12-18T05:29:20;46.93;;;15.63;;
70757;SDS011;59316;52.964;7.102;2022-12-18T05:34:22;53.30;;;17.90;;
70757;SDS011;59316;52.964;7.102;2022-12-18T05:39:24;50.00;;;16.77;;
70757;SDS011;59316;52.964;7.102;2022-12-18T05:44:25;48.10;;;15.47;;
70757;SDS011;59316;52.964;7.102;2022-12-18T05:49:27;49.53;;;17.08;;
70757;SDS011;59316;52.964;7.102;2022-12-18T05:54:29;47.30;;;15.87;;
70757;SDS011;59316;52.964;7.102;2022-12-18T05:59:31;49.08;;;15.77;;
70757;SDS011;59316;52.964;7.102;2022-12-18T06:04:33;34.38;;;14.70;;
70757;SDS011;59316;52.964;7.102;2022-12-18T06:09:35;37.67;;;14.90;;
70757;SDS011;59316;52.964;7.102;2022-12-18T06:14:37;44.63;;;15.50;;
70757;SDS011;59316;52.964;7.102;2022-12-18T06:19:39;44.30;;;15.67;;
70757;SDS011;59316;52.964;7.102;2022-12-18T06:24:41;40.23;;;14.67;;
70757;SDS011;59316;52.964;7.102;2022-12-18T06:29:42;44.57;;;15.23;;
70757;SDS011;59316;52.964;7.102;2022-12-18T06:34:44;43.70;;;14.97;;
70757;SDS011;59316;52.964;7.102;2022-12-18T06:39:46;42.53;;;15.07;;
70757;SDS011;59316;52.964;7.102;2022-12-18T06:44:48;36.07;;;14.60;;
70757;SDS011;59316;52.964;7.102;2022-12-18T06:49:50;38.90;;;15.67;;
70757;SDS011;59316;52.964;7.102;2022-12-18T06:54:52;41.87;;;15.60;;
70757;SDS011;59316;52.964;7.102;2022-12-18T06:59:53;37.07;;;14.23;;
70757;SDS011;59316;52.964;7.102;2022-12-18T07:04:55;41.60;;;14.93;;
70757;SDS011;59316;52.964;7.102;2022-12-18T07:09:57;32.00;;;13.57;;
70757;SDS011;59316;52.964;7.102;2022-12-18T07:14:59;33.93;;;13.77;;
70757;SDS011;59316;52.964;7.102;2022-12-18T07:20:01;36.92;;;14.07;;
70757;SDS011;59316;52.964;7.102;2022-12-18T07:25:03;34.83;;;13.60;;
70757;SDS011;59316;52.964;7.102;2022-12-18T07:30:05;28.10;;;11.95;;
70757;SDS011;59316;52.964;7.102;2022-12-18T07:35:07;36.40;;;13.45;;
70757;SDS011;59316;52.964;7.102;2022-12-18T07:40:09;34.67;;;12.53;;
70757;SDS011;59316;52.964;7.102;2022-12-18T07:45:11;32.85;;;13.23;;
70757;SDS011;59316;52.964;7.102;2022-12-18T07:50:13;31.40;;;12.63;;
70757;SDS011;59316;52.964;7.102;2022-12-18T07:55:15;30.30;;;12.30;;
70757;SDS011;59316;52.964;7.102;2022-12-18T08:00:17;27.47;;;11.43;;
70757;SDS011;59316;52.964;7.102;2022-12-18T08:05:18;29.20;;;12.60;;
70757;SDS011;59316;52.964;7.102;2022-12-18T08:10:20;24.17;;;11.03;;
70757;SDS011;59316;52.964;7.102;2022-12-18T08:15:22;24.13;;;10.43;;
70757;SDS011;59316;52.964;7.102;2022-12-18T08:20:24;25.57;;;10.50;;
70757;SDS011;59316;52.964;7.102;2022-12-18T08:25:26;24.10;;;10.47;;
70757;SDS011;59316;52.964;7.102;2022-12-18T08:30:28;21.03;;;10.27;;
70757;SDS011;59316;52.964;7.102;2022-12-18T08:35:30;21.23;;;9.97;;
70757;SDS011;59316;52.964;7.102;2022-12-18T08:40:38;24.52;;;10.23;;
70757;SDS011;59316;52.964;7.102;2022-12-18T08:45:40;24.10;;;10.10;;
70757;SDS011;59316;52.964;7.102;2022-12-18T08:50:42;20.00;;;8.80;;
70757;SDS011;59316;52.964;7.102;2022-12-18T08:55:44;20.90;;;9.40;;
70757;SDS011;59316;52.964;7.102;2022-12-18T09:00:51;22.38;;;8.90;;
70757;SDS011;59316;52.964;7.102;2022-12-18T09:05:52;20.27;;;8.43;;
70757;SDS011;59316;52.964;7.102;2022-12-18T09:10:54;21.83;;;9.32;;
70757;SDS011;59316;52.964;7.102;2022-12-18T09:15:57;22.90;;;8.63;;
70757;SDS011;59316;52.964;7.102;2022-12-18T09:20:58;17.67;;;8.00;;
70757;SDS011;59316;52.964;7.102;2022-12-18T09:26:00;14.10;;;7.35;;
70757;SDS011;59316;52.964;7.102;2022-12-18T09:31:07;22.10;;;7.97;;
70757;SDS011;59316;52.964;7.102;2022-12-18T09:36:09;16.85;;;6.95;;
70757;SDS011;59316;52.964;7.102;2022-12-18T09:46:33;12.57;;;6.45;;
70757;SDS011;59316;52.964;7.102;2022-12-18T09:51:37;14.50;;;6.70;;
70757;SDS011;59316;52.964;7.102;2022-12-18T09:56:41;14.63;;;7.22;;
70757;SDS011;59316;52.964;7.102;2022-12-18T10:06:59;15.70;;;5.88;;
70757;SDS011;59316;52.964;7.102;2022-12-18T10:12:13;11.60;;;5.97;;
70757;SDS011;59316;52.964;7.102;2022-12-18T10:27:43;12.10;;;5.63;;
70757;SDS011;59316;52.964;7.102;2022-12-18T10:32:45;13.93;;;5.88;;
70757;SDS011;59316;52.964;7.102;2022-12-18T10:38:00;10.50;;;5.32;;
70757;SDS011;59316;52.964;7.102;2022-12-18T10:43:10;12.25;;;5.40;;
70757;SDS011;59316;52.964;7.102;2022-12-18T10:48:19;11.65;;;5.15;;
70757;SDS011;59316;52.964;7.102;2022-12-18T10:53:23;9.98;;;4.82;;
70757;SDS011;59316;52.964;7.102;2022-12-18T10:58:30;11.30;;;5.15;;
70757;SDS011;59316;52.964;7.102;2022-12-18T11:03:44;11.68;;;5.38;;
70757;SDS011;59316;52.964;7.102;2022-12-18T11:14:17;11.23;;;4.95;;
70757;SDS011;59316;52.964;7.102;2022-12-18T11:19:33;11.05;;;5.63;;
70757;SDS011;59316;52.964;7.102;2022-12-18T11:24:36;8.02;;;4.55;;
70757;SDS011;59316;52.964;7.102;2022-12-18T11:29:38;11.73;;;5.47;;
70757;SDS011;59316;52.964;7.102;2022-12-18T11:34:48;9.95;;;5.35;;
70757;SDS011;59316;52.964;7.102;2022-12-18T11:40:01;10.15;;;5.10;;
70757;SDS011;59316;52.964;7.102;2022-12-18T11:45:14;12.30;;;5.45;;
70757;SDS011;59316;52.964;7.102;2022-12-18T11:55:56;10.52;;;5.53;;
70757;SDS011;59316;52.964;7.102;2022-12-18T12:06:10;10.65;;;5.90;;
70757;SDS011;59316;52.964;7.102;2022-12-18T12:16:17;11.70;;;6.07;;
70757;SDS011;59316;52.964;7.102;2022-12-18T12:26:30;12.57;;;5.72;;
70757;SDS011;59316;52.964;7.102;2022-12-18T12:41:38;10.23;;;4.50;;
70757;SDS011;59316;52.964;7.102;2022-12-18T12:46:41;11.75;;;6.38;;
70757;SDS011;59316;52.964;7.102;2022-12-18T12:51:45;15.30;;;6.10;;
70757;SDS011;59316;52.964;7.102;2022-12-18T12:56:50;12.13;;;5.88;;
70757;SDS011;59316;52.964;7.102;2022-12-18T13:02:02;13.73;;;6.03;;
70757;SDS011;59316;52.964;7.102;2022-12-18T13:07:13;12.10;;;5.25;;
70757;SDS011;59316;52.964;7.102;2022-12-18T13:12:16;12.57;;;6.25;;
70757;SDS011;59316;52.964;7.102;2022-12-18T13:22:28;16.52;;;6.70;;
70757;SDS011;59316;52.964;7.102;2022-12-18T13:32:45;17.20;;;7.03;;
70757;SDS011;59316;52.964;7.102;2022-12-18T13:37:51;13.80;;;6.20;;
70757;SDS011;59316;52.964;7.102;2022-12-18T13:42:53;14.05;;;6.53;;
70757;SDS011;59316;52.964;7.102;2022-12-18T13:47:56;13.77;;;6.97;;
70757;SDS011;59316;52.964;7.102;2022-12-18T13:52:58;13.98;;;6.88;;
70757;SDS011;59316;52.964;7.102;2022-12-18T13:58:04;13.23;;;5.88;;
70757;SDS011;59316;52.964;7.102;2022-12-18T14:03:15;12.85;;;6.20;;
70757;SDS011;59316;52.964;7.102;2022-12-18T14:08:23;12.73;;;6.50;;
70757;SDS011;59316;52.964;7.102;2022-12-18T14:13:29;15.70;;;6.87;;
70757;SDS011;59316;52.964;7.102;2022-12-18T14:23:38;14.38;;;7.40;;
70757;SDS011;59316;52.964;7.102;2022-12-18T14:28:44;16.83;;;7.72;;
70757;SDS011;59316;52.964;7.102;2022-12-18T14:33:46;14.20;;;6.82;;
70757;SDS011;59316;52.964;7.102;2022-12-18T14:38:51;17.00;;;7.75;;
70757;SDS011;59316;52.964;7.102;2022-12-18T14:43:54;15.77;;;6.78;;
70757;SDS011;59316;52.964;7.102;2022-12-18T14:48:56;13.07;;;6.45;;
70757;SDS011;59316;52.964;7.102;2022-12-18T14:54:02;14.67;;;5.93;;
70757;SDS011;59316;52.964;7.102;2022-12-18T14:59:04;13.93;;;6.57;;
70757;SDS011;59316;52.964;7.102;2022-12-18T15:09:22;13.90;;;6.43;;
70757;SDS011;59316;52.964;7.102;2022-12-18T15:19:39;12.30;;;6.28;;
70757;SDS011;59316;52.964;7.102;2022-12-18T15:24:42;16.35;;;7.10;;
70757;SDS011;59316;52.964;7.102;2022-12-18T15:29:44;12.88;;;6.47;;
70757;SDS011;59316;52.964;7.102;2022-12-18T15:40:21;12.18;;;6.30;;
70757;SDS011;59316;52.964;7.102;2022-12-18T15:50:25;14.18;;;5.82;;
70757;SDS011;59316;52.964;7.102;2022-12-18T16:00:31;12.10;;;5.20;;
70757;SDS011;59316;52.964;7.102;2022-12-18T16:05:33;14.27;;;6.45;;
70757;SDS011;59316;52.964;7.102;2022-12-18T16:10:34;11.30;;;5.80;;
70757;SDS011;59316;52.964;7.102;2022-12-18T16:15:36;14.10;;;6.03;;
70757;SDS011;59316;52.964;7.102;2022-12-18T16:20:38;11.55;;;5.80;;
70757;SDS011;59316;52.964;7.102;2022-12-18T16:25:40;12.05;;;5.80;;
70757;SDS011;59316;52.964;7.102;2022-12-18T16:30:42;11.38;;;5.10;;
70757;SDS011;59316;52.964;7.102;2022-12-18T16:35:50;12.90;;;5.40;;
70757;SDS011;59316;52.964;7.102;2022-12-18T16:40:52;12.45;;;5.75;;
70757;SDS011;59316;52.964;7.102;2022-12-18T16:45:54;9.63;;;4.80;;
70757;SDS011;59316;52.964;7.102;2022-12-18T16:50:59;12.60;;;5.20;;
70757;SDS011;59316;52.964;7.102;2022-12-18T16:56:02;10.80;;;5.13;;
70757;SDS011;59316;52.964;7.102;2022-12-18T17:01:09;9.85;;;4.88;;
70757;SDS011;59316;52.964;7.102;2022-12-18T17:06:11;10.65;;;5.15;;
70757;SDS011;59316;52.964;7.102;2022-12-18T17:11:13;10.23;;;4.97;;
70757;SDS011;59316;52.964;7.102;2022-12-18T17:16:14;12.27;;;5.35;;
70757;SDS011;59316;52.964;7.102;2022-12-18T17:21:16;10.95;;;5.20;;
70757;SDS011;59316;52.964;7.102;2022-12-18T17:26:18;10.07;;;4.85;;
70757;SDS011;59316;52.964;7.102;2022-12-18T17:31:20;9.10;;;4.97;;
70757;SDS011;59316;52.964;7.102;2022-12-18T17:36:23;10.13;;;5.13;;
70757;SDS011;59316;52.964;7.102;2022-12-18T17:41:25;8.32;;;4.93;;
70757;SDS011;59316;52.964;7.102;2022-12-18T17:46:28;9.68;;;4.75;;
70757;SDS011;59316;52.964;7.102;2022-12-18T17:51:30;12.77;;;5.43;;
70757;SDS011;59316;52.964;7.102;2022-12-18T17:56:32;11.95;;;4.65;;
70757;SDS011;59316;52.964;7.102;2022-12-18T18:01:34;8.60;;;4.60;;
70757;SDS011;59316;52.964;7.102;2022-12-18T18:06:44;10.48;;;4.65;;
70757;SDS011;59316;52.964;7.102;2022-12-18T18:11:46;9.65;;;4.10;;
70757;SDS011;59316;52.964;7.102;2022-12-18T18:16:50;11.25;;;5.00;;
70757;SDS011;59316;52.964;7.102;2022-12-18T18:21:52;9.30;;;4.93;;
70757;SDS011;59316;52.964;7.102;2022-12-18T18:26:55;7.88;;;4.43;;
70757;SDS011;59316;52.964;7.102;2022-12-18T18:31:57;11.43;;;4.65;;
70757;SDS011;59316;52.964;7.102;2022-12-18T18:36:59;9.30;;;4.40;;
70757;SDS011;59316;52.964;7.102;2022-12-18T18:42:01;10.63;;;4.73;;
70757;SDS011;59316;52.964;7.102;2022-12-18T18:47:03;7.80;;;4.38;;
70757;SDS011;59316;52.964;7.102;2022-12-18T18:52:10;9.40;;;4.60;;
70757;SDS011;59316;52.964;7.102;2022-12-18T18:57:12;11.07;;;5.43;;
70757;SDS011;59316;52.964;7.102;2022-12-18T19:02:23;9.65;;;4.18;;
70757;SDS011;59316;52.964;7.102;2022-12-18T19:07:26;10.13;;;4.45;;
70757;SDS011;59316;52.964;7.102;2022-12-18T19:12:32;12.35;;;5.13;;
70757;SDS011;59316;52.964;7.102;2022-12-18T19:17:34;8.52;;;4.28;;
70757;SDS011;59316;52.964;7.102;2022-12-18T19:22:37;8.15;;;4.35;;
70757;SDS011;59316;52.964;7.102;2022-12-18T19:27:39;10.13;;;4.93;;
70757;SDS011;59316;52.964;7.102;2022-12-18T19:32:40;11.52;;;5.25;;
70757;SDS011;59316;52.964;7.102;2022-12-18T19:37:42;10.40;;;5.10;;
70757;SDS011;59316;52.964;7.102;2022-12-18T19:42:44;11.32;;;5.45;;
70757;SDS011;59316;52.964;7.102;2022-12-18T19:47:48;10.10;;;4.78;;
70757;SDS011;59316;52.964;7.102;2022-12-18T19:52:50;10.68;;;4.93;;
70757;SDS011;59316;52.964;7.102;2022-12-18T19:57:52;8.68;;;5.07;;
70757;SDS011;59316;52.964;7.102;2022-12-18T20:02:54;10.23;;;4.85;;
70757;SDS011;59316;52.964;7.102;2022-12-18T20:08:06;10.90;;;5.22;;
70757;SDS011;59316;52.964;7.102;2022-12-18T20:13:08;11.70;;;4.93;;
70757;SDS011;59316;52.964;7.102;2022-12-18T20:18:10;13.57;;;5.78;;
70757;SDS011;59316;52.964;7.102;2022-12-18T20:23:12;12.32;;;5.78;;
70757;SDS011;59316;52.964;7.102;2022-12-18T20:28:14;11.88;;;6.35;;
70757;SDS011;59316;52.964;7.102;2022-12-18T20:33:16;14.27;;;6.32;;
70757;SDS011;59316;52.964;7.102;2022-12-18T20:38:18;12.32;;;6.00;;
70757;SDS011;59316;52.964;7.102;2022-12-18T20:43:21;12.73;;;6.82;;
70757;SDS011;59316;52.964;7.102;2022-12-18T20:48:23;17.15;;;7.63;;
70757;SDS011;59316;52.964;7.102;2022-12-18T20:53:27;13.98;;;7.15;;
70757;SDS011;59316;52.964;7.102;2022-12-18T20:58:29;15.13;;;6.73;;
70757;SDS011;59316;52.964;7.102;2022-12-18T21:03:31;18.50;;;7.10;;
70757;SDS011;59316;52.964;7.102;2022-12-18T21:08:33;17.05;;;7.45;;
70757;SDS011;59316;52.964;7.102;2022-12-18T21:13:35;17.75;;;7.40;;
70757;SDS011;59316;52.964;7.102;2022-12-18T21:18:37;15.88;;;7.65;;
70757;SDS011;59316;52.964;7.102;2022-12-18T21:23:39;17.95;;;7.45;;
70757;SDS011;59316;52.964;7.102;2022-12-18T21:28:41;15.18;;;7.03;;
70757;SDS011;59316;52.964;7.102;2022-12-18T21:33:43;22.08;;;8.40;;
70757;SDS011;59316;52.964;7.102;2022-12-18T21:43:48;18.23;;;8.18;;
70757;SDS011;59316;52.964;7.102;2022-12-18T21:48:50;18.30;;;8.52;;
70757;SDS011;59316;52.964;7.102;2022-12-18T21:53:52;21.33;;;10.07;;
70757;SDS011;59316;52.964;7.102;2022-12-18T21:58:53;19.10;;;7.65;;
70757;SDS011;59316;52.964;7.102;2022-12-18T22:03:58;21.38;;;8.98;;
70757;SDS011;59316;52.964;7.102;2022-12-18T22:09:00;19.95;;;8.60;;
70757;SDS011;59316;52.964;7.102;2022-12-18T22:14:01;21.10;;;8.90;;
70757;SDS011;59316;52.964;7.102;2022-12-18T22:19:03;19.00;;;9.30;;
70757;SDS011;59316;52.964;7.102;2022-12-18T22:24:06;21.00;;;9.32;;
70757;SDS011;59316;52.964;7.102;2022-12-18T22:34:10;24.00;;;10.77;;
70757;SDS011;59316;52.964;7.102;2022-12-18T22:39:19;22.42;;;10.07;;
70757;SDS011;59316;52.964;7.102;2022-12-18T22:44:21;24.02;;;10.90;;
70757;SDS011;59316;52.964;7.102;2022-12-18T22:49:24;24.50;;;11.43;;
70757;SDS011;59316;52.964;7.102;2022-12-18T22:54:26;27.40;;;12.30;;
70757;SDS011;59316;52.964;7.102;2022-12-18T22:59:27;25.58;;;11.90;;
70757;SDS011;59316;52.964;7.102;2022-12-18T23:04:29;25.65;;;11.40;;
70757;SDS011;59316;52.964;7.102;2022-12-18T23:09:37;30.98;;;13.02;;
70757;SDS011;59316;52.964;7.102;2022-12-18T23:14:39;28.30;;;13.07;;
70757;SDS011;59316;52.964;7.102;2022-12-18T23:19:41;32.72;;;13.52;;
70757;SDS011;59316;52.964;7.102;2022-12-18T23:24:49;24.67;;;12.85;;
70757;SDS011;59316;52.964;7.102;2022-12-18T23:29:51;27.73;;;12.27;;
70757;SDS011;59316;52.964;7.102;2022-12-18T23:34:55;35.55;;;15.00;;
70757;SDS011;59316;52.964;7.102;2022-12-18T23:39:57;31.90;;;13.23;;
70757;SDS011;59316;52.964;7.102;2022-12-18T23:44:59;33.20;;;14.70;;
70757;SDS011;59316;52.964;7.102;2022-12-18T23:50:01;31.00;;;13.77;;
70757;SDS011;59316;52.964;7.102;2022-12-18T23:55:03;33.00;;;14.90;;
